Time;durP1;ratioP1;P1;durP2;ratioP2;P2;SDS_P1;SDS_P2;PMS_P1;PMS_P2;Temp;Humidity;BMP_temperature;BMP_pressure;BME280_temperature;BME280_humidity;BME280_pressure;Samples;Min_cycle;Max_cycle;Signal;HPM_P1;HPM_P2
2024/04/07 00:02:15;;;;;;;7.70;2.90;;;;;;;;;;4893761;29;20212;-93
2024/04/07 00:05:22;;;;;;;6.22;2.45;;;;;;;;;;4893931;29;20255;-93
2024/04/07 00:08:27;;;;;;;4.45;2.60;;;;;;;;;;4893300;29;20230;-92
2024/04/07 00:11:31;;;;;;;8.75;2.65;;;;;;;;;;4896872;29;20186;-92
2024/04/07 00:14:36;;;;;;;8.55;2.88;;;;;;;;;;4894504;29;20188;-95
2024/04/07 00:17:41;;;;;;;6.32;2.70;;;;;;;;;;4892363;29;20193;-93
2024/04/07 00:20:49;;;;;;;6.60;2.60;;;;;;;;;;4895421;29;20169;-92
2024/04/07 00:23:55;;;;;;;10.75;3.13;;;;;;;;;;4895610;29;20220;-91
2024/04/07 00:26:59;;;;;;;4.40;2.47;;;;;;;;;;4892502;29;20201;-93
2024/04/07 00:30:05;;;;;;;7.35;3.10;;;;;;;;;;4893850;29;20230;-93
2024/04/07 00:33:09;;;;;;;9.98;2.47;;;;;;;;;;4894521;29;20261;-94
2024/04/07 00:36:16;;;;;;;6.25;2.55;;;;;;;;;;4892099;29;20246;-94
2024/04/07 00:39:21;;;;;;;5.40;2.55;;;;;;;;;;4892758;29;20201;-94
2024/04/07 00:42:27;;;;;;;7.28;3.17;;;;;;;;;;4892038;29;20271;-94
2024/04/07 00:45:31;;;;;;;7.32;3.00;;;;;;;;;;4892760;29;20267;-91
2024/04/07 00:48:37;;;;;;;7.70;2.53;;;;;;;;;;4892070;29;20201;-93
2024/04/07 00:51:43;;;;;;;5.22;2.63;;;;;;;;;;4892367;29;20197;-91
2024/04/07 00:54:48;;;;;;;7.30;2.67;;;;;;;;;;4892277;29;20698;-94
2024/04/07 00:57:52;;;;;;;3.55;2.38;;;;;;;;;;4894085;29;20185;-93
2024/04/07 01:00:57;;;;;;;10.05;2.90;;;;;;;;;;4891466;29;20221;-90
2024/04/07 01:04:02;;;;;;;4.90;2.50;;;;;;;;;;4892405;29;20213;-93
2024/04/07 01:07:09;;;;;;;4.90;2.58;;;;;;;;;;4890968;29;20202;-93
2024/04/07 01:10:14;;;;;;;4.60;2.33;;;;;;;;;;4891833;29;20219;-95
2024/04/07 01:13:24;;;;;;;6.53;2.50;;;;;;;;;;4891455;29;20263;-92
2024/04/07 01:16:29;;;;;;;5.05;2.70;;;;;;;;;;4891773;29;20282;-92
2024/04/07 01:19:34;;;;;;;4.13;2.28;;;;;;;;;;4892943;29;20197;-92
2024/04/07 01:22:40;;;;;;;7.72;2.67;;;;;;;;;;4890357;29;20197;-91
2024/04/07 01:25:47;;;;;;;8.80;2.97;;;;;;;;;;4889517;29;20307;-92
2024/04/07 01:28:52;;;;;;;6.00;2.90;;;;;;;;;;4890525;29;20276;-92
2024/04/07 01:31:56;;;;;;;6.70;2.97;;;;;;;;;;4891399;29;20571;-93
2024/04/07 01:35:01;;;;;;;8.63;2.85;;;;;;;;;;4891301;29;20220;-91
2024/04/07 01:38:05;;;;;;;12.55;2.70;;;;;;;;;;4892558;29;20192;-92
2024/04/07 01:41:12;;;;;;;8.65;2.55;;;;;;;;;;4891556;29;20204;-91
2024/04/07 01:44:16;;;;;;;4.90;2.33;;;;;;;;;;4891882;29;20287;-92
2024/04/07 01:47:22;;;;;;;4.25;2.80;;;;;;;;;;4891798;29;20197;-94
2024/04/07 01:50:26;;;;;;;9.88;2.75;;;;;;;;;;4891941;29;20330;-92
2024/04/07 01:53:32;;;;;;;3.97;2.20;;;;;;;;;;4892476;29;20196;-93
2024/04/07 01:56:37;;;;;;;4.20;2.30;;;;;;;;;;4890919;29;20242;-93
2024/04/07 01:59:43;;;;;;;5.20;2.20;;;;;;;;;;4890475;29;20214;-92
2024/04/07 02:02:48;;;;;;;5.97;2.47;;;;;;;;;;4890905;29;20189;-92
2024/04/07 02:05:53;;;;;;;3.88;2.22;;;;;;;;;;4890183;29;20224;-92
2024/04/07 02:08:58;;;;;;;6.40;2.63;;;;;;;;;;4891476;29;20197;-93
2024/04/07 02:12:05;;;;;;;4.50;2.13;;;;;;;;;;4890869;29;20200;-93
2024/04/07 02:15:12;;;;;;;6.53;2.38;;;;;;;;;;4892588;29;20264;-93
2024/04/07 02:18:16;;;;;;;6.38;2.67;;;;;;;;;;4890982;29;20261;-91
2024/04/07 02:21:22;;;;;;;4.18;2.80;;;;;;;;;;4892044;29;20258;-92
2024/04/07 02:24:26;;;;;;;4.20;2.58;;;;;;;;;;4891252;29;20220;-94
2024/04/07 02:27:33;;;;;;;7.18;2.60;;;;;;;;;;4891089;29;20185;-93
2024/04/07 02:30:36;;;;;;;5.28;2.33;;;;;;;;;;4891689;29;20193;-94
2024/04/07 02:33:45;;;;;;;5.15;2.33;;;;;;;;;;4891411;29;20258;-91
2024/04/07 02:36:50;;;;;;;5.38;2.00;;;;;;;;;;4891483;29;20668;-93
2024/04/07 02:39:55;;;;;;;4.45;2.47;;;;;;;;;;4894370;29;20176;-95
2024/04/07 02:43:01;;;;;;;8.40;2.90;;;;;;;;;;4893785;29;20193;-93
2024/04/07 02:49:29;;;;;;;4.18;2.20;;;;;;;;;;4894717;29;20207;-92
2024/04/07 02:52:35;;;;;;;4.90;2.58;;;;;;;;;;4893518;29;20689;-93
2024/04/07 02:55:40;;;;;;;8.82;2.47;;;;;;;;;;4894674;29;20201;-93
2024/04/07 02:58:45;;;;;;;7.25;2.53;;;;;;;;;;4893915;29;20225;-93
2024/04/07 03:01:51;;;;;;;4.18;2.40;;;;;;;;;;4895678;29;20204;-91
2024/04/07 03:04:55;;;;;;;6.90;2.50;;;;;;;;;;4895115;29;20273;-92
2024/04/07 03:08:00;;;;;;;5.32;2.80;;;;;;;;;;4895574;29;20667;-94
2024/04/07 03:11:05;;;;;;;7.45;2.63;;;;;;;;;;4894554;29;20200;-94
2024/04/07 03:14:12;;;;;;;5.90;2.80;;;;;;;;;;4893144;29;20267;-94
2024/04/07 03:17:18;;;;;;;11.20;2.80;;;;;;;;;;4892608;29;20189;-92
2024/04/07 03:20:22;;;;;;;6.80;2.97;;;;;;;;;;4892852;29;20212;-93
2024/04/07 03:23:27;;;;;;;6.93;2.67;;;;;;;;;;4894200;29;20193;-93
2024/04/07 03:26:31;;;;;;;4.57;2.17;;;;;;;;;;4894383;29;20212;-93
2024/04/07 03:29:38;;;;;;;4.10;2.45;;;;;;;;;;4893619;29;20194;-92
2024/04/07 03:32:44;;;;;;;7.88;3.00;;;;;;;;;;4892888;29;20323;-94
2024/04/07 03:35:48;;;;;;;9.10;2.83;;;;;;;;;;4893059;29;20217;-92
2024/04/07 03:38:53;;;;;;;7.03;2.67;;;;;;;;;;4893297;29;20237;-92
2024/04/07 03:41:58;;;;;;;9.68;2.80;;;;;;;;;;4900641;29;20204;-94
2024/04/07 03:45:09;;;;;;;4.07;2.33;;;;;;;;;;4900302;29;20196;-92
2024/04/07 03:48:14;;;;;;;4.80;2.40;;;;;;;;;;4892602;29;20234;-94
2024/04/07 03:51:20;;;;;;;5.70;2.60;;;;;;;;;;4893802;29;20192;-93
2024/04/07 03:54:24;;;;;;;3.60;2.53;;;;;;;;;;4893217;29;20197;-95
2024/04/07 03:57:29;;;;;;;3.85;2.42;;;;;;;;;;4895828;29;20235;-94
2024/04/07 04:00:36;;;;;;;5.47;2.38;;;;;;;;;;4894078;29;20188;-93
2024/04/07 04:03:41;;;;;;;7.25;2.65;;;;;;;;;;4893283;29;20208;-92
2024/04/07 04:06:48;;;;;;;6.28;2.92;;;;;;;;;;4892659;29;20558;-92
2024/04/07 04:09:54;;;;;;;8.07;3.25;;;;;;;;;;4892912;29;20197;-94
2024/04/07 04:12:59;;;;;;;5.90;2.25;;;;;;;;;;4893462;29;20185;-91
2024/04/07 04:16:06;;;;;;;7.45;2.50;;;;;;;;;;4893713;29;20350;-92
2024/04/07 04:19:11;;;;;;;8.77;2.85;;;;;;;;;;4893045;29;20370;-92
2024/04/07 04:22:16;;;;;;;3.97;2.30;;;;;;;;;;4893852;29;20333;-91
2024/04/07 04:25:22;;;;;;;5.65;2.70;;;;;;;;;;4892113;29;20237;-95
2024/04/07 04:28:28;;;;;;;6.57;2.67;;;;;;;;;;4894961;29;20193;-91
2024/04/07 04:31:35;;;;;;;10.88;3.00;;;;;;;;;;4890282;29;20182;-93
2024/04/07 04:34:39;;;;;;;5.20;2.88;;;;;;;;;;4889789;29;20219;-92
2024/04/07 04:37:44;;;;;;;9.52;2.95;;;;;;;;;;4891360;29;20209;-92
2024/04/07 04:40:52;;;;;;;4.90;2.80;;;;;;;;;;4892035;29;20189;-93
2024/04/07 04:43:57;;;;;;;5.32;2.42;;;;;;;;;;4891568;29;20698;-92
2024/04/07 04:47:04;;;;;;;9.70;3.15;;;;;;;;;;4892550;29;20201;-92
2024/04/07 04:50:10;;;;;;;5.15;2.92;;;;;;;;;;4893294;29;20189;-94
2024/04/07 04:53:16;;;;;;;7.35;2.97;;;;;;;;;;4893231;29;20218;-92
2024/04/07 04:56:20;;;;;;;5.72;2.50;;;;;;;;;;4892782;29;20212;-92
2024/04/07 04:59:26;;;;;;;6.60;2.95;;;;;;;;;;4892661;29;20201;-92
2024/04/07 05:02:32;;;;;;;6.25;2.95;;;;;;;;;;4892380;29;20223;-91
2024/04/07 05:05:39;;;;;;;5.72;2.55;;;;;;;;;;4893236;29;20556;-93
2024/04/07 05:08:45;;;;;;;6.05;2.53;;;;;;;;;;4892832;29;20198;-93
2024/04/07 05:11:51;;;;;;;7.40;2.67;;;;;;;;;;4898610;29;20241;-93
2024/04/07 05:14:56;;;;;;;7.13;2.83;;;;;;;;;;4892764;29;20231;-92
2024/04/07 05:18:02;;;;;;;5.97;3.00;;;;;;;;;;4893143;29;20209;-91
2024/04/07 05:21:09;;;;;;;4.55;2.40;;;;;;;;;;4893329;29;20273;-91
2024/04/07 05:24:14;;;;;;;5.45;2.45;;;;;;;;;;4892872;29;20277;-92
2024/04/07 05:27:19;;;;;;;3.13;2.30;;;;;;;;;;4891765;29;20270;-91
2024/04/07 05:30:24;;;;;;;7.38;2.58;;;;;;;;;;4891938;29;20185;-92
2024/04/07 05:33:31;;;;;;;5.50;2.45;;;;;;;;;;4892364;29;20200;-92
2024/04/07 05:36:35;;;;;;;8.30;2.60;;;;;;;;;;4892079;29;20236;-92
2024/04/07 05:39:40;;;;;;;4.65;2.30;;;;;;;;;;4892948;29;20188;-92
2024/04/07 05:42:45;;;;;;;5.10;2.47;;;;;;;;;;4892842;29;20217;-93
2024/04/07 05:45:49;;;;;;;7.43;2.30;;;;;;;;;;4894015;29;20252;-92
2024/04/07 05:48:57;;;;;;;5.57;2.90;;;;;;;;;;4892932;29;20238;-93
2024/04/07 05:52:01;;;;;;;3.72;2.08;;;;;;;;;;4895248;29;20193;-90
2024/04/07 05:55:08;;;;;;;5.35;2.20;;;;;;;;;;4892185;29;20261;-96
2024/04/07 05:58:14;;;;;;;3.50;2.00;;;;;;;;;;4880651;29;20196;-94
2024/04/07 06:01:20;;;;;;;5.55;2.03;;;;;;;;;;4891426;29;20222;-94
2024/04/07 06:04:25;;;;;;;4.97;2.35;;;;;;;;;;4893096;29;20197;-94
2024/04/07 06:07:31;;;;;;;5.20;2.28;;;;;;;;;;4894146;29;20201;-94
2024/04/07 06:10:35;;;;;;;4.63;2.17;;;;;;;;;;4892399;29;20209;-94
2024/04/07 06:13:41;;;;;;;5.03;2.20;;;;;;;;;;4893300;29;20185;-92
2024/04/07 06:16:45;;;;;;;6.57;2.25;;;;;;;;;;4891928;29;20225;-93
2024/04/07 06:19:52;;;;;;;5.38;2.13;;;;;;;;;;4892432;29;20208;-93
2024/04/07 06:22:57;;;;;;;5.25;2.20;;;;;;;;;;4892262;29;20342;-94
2024/04/07 06:26:02;;;;;;;6.15;2.63;;;;;;;;;;4891251;29;20194;-94
2024/04/07 06:29:07;;;;;;;6.80;2.40;;;;;;;;;;4892313;29;20858;-93
2024/04/07 06:32:12;;;;;;;5.10;2.30;;;;;;;;;;4891862;29;20186;-92
2024/04/07 06:35:19;;;;;;;5.13;2.25;;;;;;;;;;4890277;29;20224;-92
2024/04/07 06:38:25;;;;;;;5.35;2.20;;;;;;;;;;4890562;29;20266;-94
2024/04/07 06:41:29;;;;;;;5.90;2.10;;;;;;;;;;4889836;29;20269;-94
2024/04/07 06:44:34;;;;;;;3.90;2.22;;;;;;;;;;4891197;29;20243;-92
2024/04/07 06:47:41;;;;;;;4.30;2.20;;;;;;;;;;4890742;29;20258;-93
2024/04/07 06:50:48;;;;;;;6.55;2.03;;;;;;;;;;4889604;29;20628;-93
2024/04/07 06:53:56;;;;;;;8.48;2.50;;;;;;;;;;4891832;29;20219;-93
2024/04/07 06:57:02;;;;;;;4.05;2.20;;;;;;;;;;4892660;29;20338;-94
2024/04/07 07:00:07;;;;;;;3.55;2.25;;;;;;;;;;4892563;29;20209;-93
2024/04/07 07:03:12;;;;;;;4.88;2.45;;;;;;;;;;4892466;29;20201;-93
2024/04/07 07:06:18;;;;;;;6.32;1.90;;;;;;;;;;4892091;29;20185;-94
2024/04/07 07:09:23;;;;;;;3.47;2.17;;;;;;;;;;4893844;29;20250;-95
2024/04/07 07:12:32;;;;;;;8.35;2.17;;;;;;;;;;4892816;29;20677;-94
2024/04/07 07:15:36;;;;;;;3.15;2.20;;;;;;;;;;4894846;29;20604;-94
2024/04/07 07:18:45;;;;;;;5.95;2.75;;;;;;;;;;4892440;29;20227;-95
2024/04/07 07:21:52;;;;;;;5.75;2.40;;;;;;;;;;4892199;29;20238;-91
2024/04/07 07:24:57;;;;;;;4.13;2.15;;;;;;;;;;4897596;29;20213;-95
2024/04/07 07:28:01;;;;;;;4.72;2.40;;;;;;;;;;4897323;29;20269;-95
2024/04/07 07:31:10;;;;;;;5.47;2.17;;;;;;;;;;4895694;29;20214;-93
2024/04/07 07:34:16;;;;;;;5.63;2.13;;;;;;;;;;4895212;29;20223;-94
2024/04/07 07:37:26;;;;;;;4.50;2.30;;;;;;;;;;4894950;29;20250;-93
2024/04/07 07:40:32;;;;;;;6.53;2.13;;;;;;;;;;4895541;29;20213;-94
2024/04/07 07:43:38;;;;;;;3.03;1.73;;;;;;;;;;4896307;29;20239;-92
2024/04/07 07:46:43;;;;;;;6.57;2.95;;;;;;;;;;4896096;29;20232;-94
2024/04/07 07:49:55;;;;;;;5.88;2.50;;;;;;;;;;4896211;29;20247;-92
2024/04/07 07:53:04;;;;;;;3.95;2.25;;;;;;;;;;4896569;29;20193;-93
2024/04/07 07:56:12;;;;;;;6.15;2.40;;;;;;;;;;4894920;29;20229;-94
2024/04/07 07:59:16;;;;;;;4.78;2.20;;;;;;;;;;4894912;29;20177;-94
2024/04/07 08:02:22;;;;;;;3.95;1.77;;;;;;;;;;4897665;29;20217;-92
2024/04/07 08:05:26;;;;;;;3.50;1.98;;;;;;;;;;4896612;29;20220;-92
2024/04/07 08:08:35;;;;;;;6.28;1.90;;;;;;;;;;4896881;29;20206;-93
2024/04/07 08:11:42;;;;;;;4.15;1.75;;;;;;;;;;4895190;29;20198;-94
2024/04/07 08:14:50;;;;;;;4.32;2.30;;;;;;;;;;4896813;29;20180;-94
2024/04/07 08:17:58;;;;;;;6.00;1.80;;;;;;;;;;4896627;29;20237;-93
2024/04/07 08:21:06;;;;;;;4.07;1.90;;;;;;;;;;4895957;29;20204;-93
2024/04/07 08:24:15;;;;;;;2.15;1.67;;;;;;;;;;4896366;29;20212;-93
2024/04/07 08:27:21;;;;;;;3.03;1.80;;;;;;;;;;4897966;29;20288;-93
2024/04/07 08:30:33;;;;;;;4.72;1.77;;;;;;;;;;4898366;29;20206;-92
2024/04/07 08:33:39;;;;;;;5.45;1.85;;;;;;;;;;4896982;29;20255;-95
2024/04/07 08:36:43;;;;;;;4.47;2.00;;;;;;;;;;4896011;29;20313;-93
2024/04/07 08:40:00;;;;;;;4.30;1.90;;;;;;;;;;4896392;29;20181;-94
2024/04/07 08:43:33;;;;;;;4.32;1.70;;;;;;;;;;4895537;29;20323;-95
2024/04/07 08:46:41;;;;;;;4.82;2.00;;;;;;;;;;4897070;29;20236;-94
2024/04/07 08:49:46;;;;;;;5.45;1.80;;;;;;;;;;4896505;29;20189;-94
2024/04/07 08:52:57;;;;;;;4.88;2.20;;;;;;;;;;4887534;29;20173;-93
2024/04/07 08:56:19;;;;;;;4.60;1.85;;;;;;;;;;4899302;29;20250;-92
2024/04/07 08:59:28;;;;;;;4.65;1.60;;;;;;;;;;4896811;29;20188;-93
2024/04/07 09:02:34;;;;;;;2.15;1.45;;;;;;;;;;4898348;29;20224;-95
2024/04/07 09:05:40;;;;;;;2.40;1.35;;;;;;;;;;4897261;29;20249;-94
2024/04/07 09:08:49;;;;;;;3.55;1.77;;;;;;;;;;4898096;29;20196;-96
2024/04/07 09:15:24;;;;;;;3.17;1.60;;;;;;;;;;4898313;29;20222;-93
2024/04/07 09:18:31;;;;;;;5.65;1.92;;;;;;;;;;4897174;29;20196;-96
2024/04/07 09:21:39;;;;;;;6.90;1.58;;;;;;;;;;4898510;29;20180;-95
2024/04/07 09:24:45;;;;;;;6.30;1.55;;;;;;;;;;4897624;29;20192;-95
2024/04/07 09:27:51;;;;;;;2.25;1.42;;;;;;;;;;4898481;29;20181;-94
2024/04/07 09:31:11;;;;;;;3.00;1.63;;;;;;;;;;4899458;29;20575;-95
2024/04/07 09:34:35;;;;;;;2.03;1.40;;;;;;;;;;4898323;29;20595;-96
2024/04/07 09:37:49;;;;;;;2.17;1.23;;;;;;;;;;4897474;29;20173;-95
2024/04/07 09:40:58;;;;;;;2.13;1.10;;;;;;;;;;4899237;29;20267;-94
2024/04/07 09:44:09;;;;;;;1.95;1.13;;;;;;;;;;4898114;29;20189;-94
2024/04/07 09:47:17;;;;;;;4.25;1.10;;;;;;;;;;4896728;29;20213;-96
2024/04/07 09:50:27;;;;;;;1.88;1.00;;;;;;;;;;4898253;29;20309;-95
2024/04/07 09:53:41;;;;;;;1.67;0.90;;;;;;;;;;4895874;29;20210;-95
2024/04/07 09:56:49;;;;;;;6.90;1.50;;;;;;;;;;4895765;29;20192;-93
2024/04/07 09:59:54;;;;;;;4.13;1.33;;;;;;;;;;4896939;29;20192;-94
2024/04/07 10:36:29;;;;;;;4.85;1.52;;;;;;;;;;5361279;23;20225;-95
2024/04/07 10:39:34;;;;;;;4.50;1.95;;;;;;;;;;4896619;29;20200;-95
2024/04/07 10:42:40;;;;;;;1.88;1.20;;;;;;;;;;4896796;29;20192;-93
2024/04/07 10:45:47;;;;;;;3.88;1.90;;;;;;;;;;4897388;29;20233;-93
2024/04/07 10:48:54;;;;;;;3.17;1.13;;;;;;;;;;4897247;29;20193;-94
2024/04/07 10:52:04;;;;;;;2.40;1.30;;;;;;;;;;4896313;29;20671;-94
2024/04/07 10:55:13;;;;;;;3.90;1.50;;;;;;;;;;4896088;29;20193;-95
2024/04/07 10:58:20;;;;;;;2.33;1.20;;;;;;;;;;4897936;29;20181;-94
2024/04/07 11:01:27;;;;;;;2.92;1.70;;;;;;;;;;4899159;29;20193;-95
2024/04/07 11:04:37;;;;;;;2.90;1.20;;;;;;;;;;4900831;29;20258;-94
2024/04/07 11:07:50;;;;;;;2.58;1.30;;;;;;;;;;4902146;29;20196;-95
2024/04/07 11:10:56;;;;;;;3.05;1.45;;;;;;;;;;4900971;29;20188;-96
2024/04/07 11:14:01;;;;;;;1.92;1.20;;;;;;;;;;4899199;29;20215;-96
2024/04/07 11:17:09;;;;;;;2.53;1.50;;;;;;;;;;4898410;29;20269;-96
2024/04/07 11:20:14;;;;;;;5.05;1.35;;;;;;;;;;4899810;29;20215;-93
2024/04/07 11:23:23;;;;;;;2.25;1.50;;;;;;;;;;4900389;29;20295;-96
2024/04/07 11:26:28;;;;;;;4.30;1.30;;;;;;;;;;4900148;29;20282;-96
2024/04/07 11:29:35;;;;;;;2.63;1.35;;;;;;;;;;4899225;29;20192;-95
2024/04/07 12:25:58;;;;;;;4.20;1.30;;;;;;;;;;5352210;23;20256;-95
2024/04/07 12:29:03;;;;;;;5.03;1.73;;;;;;;;;;4887063;29;20184;-94
2024/04/07 12:32:12;;;;;;;7.00;1.95;;;;;;;;;;4898458;29;20200;-94
2024/04/07 12:35:16;;;;;;;6.35;1.30;;;;;;;;;;4899184;29;20193;-95
2024/04/07 12:38:22;;;;;;;4.28;1.48;;;;;;;;;;4898582;29;20196;-96
2024/04/07 12:41:56;;;;;;;5.20;1.40;;;;;;;;;;4899463;29;20230;-93
2024/04/07 12:45:04;;;;;;;2.67;1.10;;;;;;;;;;4897483;29;20692;-95
2024/04/07 12:51:36;;;;;;;7.72;1.70;;;;;;;;;;4897503;29;20203;-93
2024/04/07 12:54:42;;;;;;;6.35;1.67;;;;;;;;;;4898538;29;20196;-94
2024/04/07 12:57:46;;;;;;;6.28;1.48;;;;;;;;;;4896968;29;20224;-93
2024/04/07 13:00:54;;;;;;;4.57;1.85;;;;;;;;;;4897580;29;20211;-94
2024/04/07 13:03:59;;;;;;;4.43;1.50;;;;;;;;;;4897332;29;20197;-95
2024/04/07 13:07:10;;;;;;;4.60;1.40;;;;;;;;;;4896984;29;20208;-93
2024/04/07 13:10:17;;;;;;;3.80;1.60;;;;;;;;;;4897546;29;20204;-95
2024/04/07 13:13:24;;;;;;;6.00;1.70;;;;;;;;;;4896734;29;20200;-94
2024/04/07 13:16:32;;;;;;;8.30;1.88;;;;;;;;;;4895767;29;20211;-93
2024/04/07 13:19:36;;;;;;;4.38;1.55;;;;;;;;;;4896289;29;20184;-95
2024/04/07 13:23:03;;;;;;;5.72;1.45;;;;;;;;;;4896167;29;20200;-95
2024/04/07 13:26:09;;;;;;;3.08;1.48;;;;;;;;;;4896193;29;20212;-95
2024/04/07 13:29:14;;;;;;;4.20;1.50;;;;;;;;;;4896907;29;20183;-95
2024/04/07 13:32:21;;;;;;;9.45;1.55;;;;;;;;;;4895868;29;20238;-95
2024/04/07 13:35:25;;;;;;;3.50;1.67;;;;;;;;;;4895276;29;20203;-95
2024/04/07 13:38:31;;;;;;;4.45;1.42;;;;;;;;;;4896069;29;20192;-94
2024/04/07 13:41:37;;;;;;;9.77;2.15;;;;;;;;;;4895221;29;20202;-94
2024/04/07 13:44:42;;;;;;;6.88;1.75;;;;;;;;;;4896140;29;20274;-93
2024/04/07 13:47:51;;;;;;;3.65;1.58;;;;;;;;;;4897542;29;20177;-94
2024/04/07 13:51:00;;;;;;;4.65;1.60;;;;;;;;;;4898315;29;20192;-94
2024/04/07 13:54:04;;;;;;;3.03;1.60;;;;;;;;;;4897513;29;20189;-94
2024/04/07 13:57:12;;;;;;;4.53;1.48;;;;;;;;;;4897689;29;20244;-94
2024/04/07 14:00:18;;;;;;;9.70;2.22;;;;;;;;;;4897022;29;20180;-94
2024/04/07 14:03:27;;;;;;;3.55;1.65;;;;;;;;;;4898074;29;20184;-94
2024/04/07 14:06:33;;;;;;;5.22;1.48;;;;;;;;;;4897653;29;20196;-94
2024/04/07 16:01:10;;;;;;;5.68;2.15;;;;;;;;;;5308354;23;20240;-94
2024/04/07 16:04:20;;;;;;;6.38;1.92;;;;;;;;;;4898015;29;20293;-94
2024/04/07 16:07:28;;;;;;;10.32;2.20;;;;;;;;;;4897066;29;20294;-92
2024/04/07 16:10:33;;;;;;;5.75;2.00;;;;;;;;;;4896005;29;20296;-92
2024/04/07 16:13:37;;;;;;;6.25;2.15;;;;;;;;;;4896187;29;20200;-93
2024/04/07 16:16:53;;;;;;;7.10;1.98;;;;;;;;;;4895913;29;20240;-93
2024/04/07 16:19:58;;;;;;;9.63;2.70;;;;;;;;;;4897301;29;20317;-94
2024/04/07 16:23:12;;;;;;;13.20;6.47;;;;;;;;;;4896409;29;20241;-91
2024/04/07 16:26:17;;;;;;;10.38;2.00;;;;;;;;;;4896110;29;20185;-95
2024/04/07 19:25:11;;;;;;;8.73;2.88;;;;;;;;;;5256707;23;20236;-92
2024/04/07 19:28:17;;;;;;;7.20;3.20;;;;;;;;;;4891295;29;20237;-91
2024/04/07 19:34:45;;;;;;;6.60;3.55;;;;;;;;;;4903954;29;20177;-92
2024/04/07 19:37:52;;;;;;;9.98;2.85;;;;;;;;;;4903182;29;20194;-92
2024/04/07 19:41:06;;;;;;;7.00;2.47;;;;;;;;;;4901137;29;20193;-94
2024/04/07 22:01:02;;;;;;;10.80;2.97;;;;;;;;;;5588485;23;20242;-93
2024/04/07 22:04:07;;;;;;;11.68;3.53;;;;;;;;;;4892664;29;20217;-91
2024/04/07 22:07:12;;;;;;;12.00;2.97;;;;;;;;;;4891047;29;20224;-91
2024/04/07 22:10:16;;;;;;;16.55;3.30;;;;;;;;;;4890471;29;20197;-92
2024/04/07 22:13:22;;;;;;;7.78;3.30;;;;;;;;;;4890705;29;20209;-90
2024/04/07 22:19:47;;;;;;;11.63;2.72;;;;;;;;;;5147127;27;20519;-92
2024/04/07 22:22:52;;;;;;;8.80;2.90;;;;;;;;;;5132107;28;20188;-92
2024/04/07 22:25:57;;;;;;;10.07;2.95;;;;;;;;;;5133604;27;20208;-92
2024/04/07 22:29:02;;;;;;;9.43;2.78;;;;;;;;;;5135693;27;20196;-94
2024/04/07 22:32:07;;;;;;;10.13;2.80;;;;;;;;;;5134309;27;20219;-94
2024/04/07 22:35:14;;;;;;;9.45;3.22;;;;;;;;;;5134920;28;20216;-91
2024/04/07 22:38:19;;;;;;;11.73;3.05;;;;;;;;;;5134106;28;20255;-93
2024/04/07 22:41:24;;;;;;;10.55;3.13;;;;;;;;;;5134273;27;20218;-91
2024/04/07 22:44:33;;;;;;;10.95;3.15;;;;;;;;;;5132474;27;20212;-91
2024/04/07 22:47:37;;;;;;;10.38;2.97;;;;;;;;;;5134216;28;20181;-91
2024/04/07 22:50:44;;;;;;;8.63;3.38;;;;;;;;;;5133102;28;20257;-94
2024/04/07 22:53:52;;;;;;;10.70;3.20;;;;;;;;;;5134399;28;20251;-91
2024/04/07 22:56:56;;;;;;;8.32;2.90;;;;;;;;;;5133604;27;20211;-93
2024/04/07 23:00:03;;;;;;;7.85;3.13;;;;;;;;;;5134077;27;20172;-93
2024/04/07 23:03:14;;;;;;;13.25;3.17;;;;;;;;;;5132311;28;20321;-92
2024/04/07 23:06:22;;;;;;;12.40;3.40;;;;;;;;;;5131921;28;20199;-92
2024/04/07 23:09:28;;;;;;;8.00;2.70;;;;;;;;;;5133264;28;20179;-93
2024/04/07 23:12:33;;;;;;;8.45;2.95;;;;;;;;;;5132277;27;20196;-91
2024/04/07 23:15:38;;;;;;;9.52;3.38;;;;;;;;;;5112404;28;20230;-92
2024/04/07 23:18:42;;;;;;;9.25;2.97;;;;;;;;;;5111862;28;20235;-93
2024/04/07 23:21:49;;;;;;;8.32;3.05;;;;;;;;;;5110441;28;20551;-91
2024/04/07 23:24:53;;;;;;;9.98;3.00;;;;;;;;;;5110764;28;20189;-93
2024/04/07 23:27:59;;;;;;;10.63;3.35;;;;;;;;;;5098762;28;20299;-93
2024/04/07 23:31:04;;;;;;;8.48;3.20;;;;;;;;;;5098092;28;20182;-93
2024/04/07 23:34:09;;;;;;;10.15;3.50;;;;;;;;;;5098229;28;20190;-93
2024/04/07 23:37:15;;;;;;;13.68;3.78;;;;;;;;;;5097264;28;20227;-94
2024/04/07 23:40:20;;;;;;;9.88;3.20;;;;;;;;;;5097444;28;20237;-91
2024/04/07 23:43:26;;;;;;;7.50;2.75;;;;;;;;;;5117300;28;20187;-93
2024/04/07 23:46:35;;;;;;;9.50;2.97;;;;;;;;;;5117489;28;20231;-92
2024/04/07 23:49:41;;;;;;;17.58;3.92;;;;;;;;;;5118661;28;20205;-93
2024/04/07 23:52:47;;;;;;;9.52;3.67;;;;;;;;;;5118910;28;20228;-93
2024/04/07 23:55:52;;;;;;;14.18;3.17;;;;;;;;;;5118024;28;20639;-92
2024/04/07 23:58:58;;;;;;;11.60;3.40;;;;;;;;;;5117760;28;20185;-92
